sensor_id;sensor_type;location;lat;lon;timestamp;temperature;humidity
83685;DHT22;73666;51.304;5.776;2024-01-30T00:04:36;6.60;75.30
83685;DHT22;73666;51.304;5.776;2024-01-30T00:09:38;6.60;75.40
83685;DHT22;73666;51.304;5.776;2024-01-30T00:14:42;6.60;75.50
83685;DHT22;73666;51.304;5.776;2024-01-30T00:19:44;6.70;75.50
83685;DHT22;73666;51.304;5.776;2024-01-30T00:24:44;6.70;75.50
83685;DHT22;73666;51.304;5.776;2024-01-30T00:29:45;6.70;75.50
83685;DHT22;73666;51.304;5.776;2024-01-30T00:34:46;6.70;75.50
83685;DHT22;73666;51.304;5.776;2024-01-30T00:39:47;6.60;75.50
83685;DHT22;73666;51.304;5.776;2024-01-30T00:44:47;6.60;75.50
83685;DHT22;73666;51.304;5.776;2024-01-30T00:49:48;6.60;75.50
83685;DHT22;73666;51.304;5.776;2024-01-30T00:54:50;6.60;75.50
83685;DHT22;73666;51.304;5.776;2024-01-30T00:59:50;6.70;75.50
83685;DHT22;73666;51.304;5.776;2024-01-30T01:04:52;6.70;75.50
83685;DHT22;73666;51.304;5.776;2024-01-30T01:09:52;6.70;75.50
83685;DHT22;73666;51.304;5.776;2024-01-30T01:14:53;6.70;75.50
83685;DHT22;73666;51.304;5.776;2024-01-30T01:19:54;6.70;75.50
83685;DHT22;73666;51.304;5.776;2024-01-30T01:24:55;6.80;75.50
83685;DHT22;73666;51.304;5.776;2024-01-30T01:29:55;6.80;75.50
83685;DHT22;73666;51.304;5.776;2024-01-30T01:34:56;6.80;75.40
83685;DHT22;73666;51.304;5.776;2024-01-30T01:39:57;6.80;75.30
83685;DHT22;73666;51.304;5.776;2024-01-30T01:44:57;6.80;75.30
83685;DHT22;73666;51.304;5.776;2024-01-30T01:49:58;6.70;75.30
83685;DHT22;73666;51.304;5.776;2024-01-30T01:54:59;6.70;75.30
83685;DHT22;73666;51.304;5.776;2024-01-30T02:00:01;6.60;75.40
83685;DHT22;73666;51.304;5.776;2024-01-30T02:05:04;6.50;75.50
83685;DHT22;73666;51.304;5.776;2024-01-30T02:10:05;6.40;75.50
83685;DHT22;73666;51.304;5.776;2024-01-30T02:15:06;6.40;75.60
83685;DHT22;73666;51.304;5.776;2024-01-30T02:20:08;6.40;75.60
83685;DHT22;73666;51.304;5.776;2024-01-30T02:25:09;6.40;75.60
83685;DHT22;73666;51.304;5.776;2024-01-30T02:30:11;6.30;75.60
83685;DHT22;73666;51.304;5.776;2024-01-30T02:35:12;6.20;75.60
83685;DHT22;73666;51.304;5.776;2024-01-30T02:40:13;6.20;75.70
83685;DHT22;73666;51.304;5.776;2024-01-30T02:45:24;6.20;75.70
83685;DHT22;73666;51.304;5.776;2024-01-30T02:50:24;6.20;75.70
83685;DHT22;73666;51.304;5.776;2024-01-30T02:55:25;6.30;75.80
83685;DHT22;73666;51.304;5.776;2024-01-30T03:00:29;6.30;75.80
83685;DHT22;73666;51.304;5.776;2024-01-30T03:05:30;6.30;75.80
83685;DHT22;73666;51.304;5.776;2024-01-30T03:10:39;6.40;75.80
83685;DHT22;73666;51.304;5.776;2024-01-30T03:15:43;6.40;75.70
83685;DHT22;73666;51.304;5.776;2024-01-30T03:20:44;6.40;75.70
83685;DHT22;73666;51.304;5.776;2024-01-30T03:25:48;6.40;75.70
83685;DHT22;73666;51.304;5.776;2024-01-30T03:30:52;6.40;75.80
83685;DHT22;73666;51.304;5.776;2024-01-30T03:35:52;6.40;75.80
83685;DHT22;73666;51.304;5.776;2024-01-30T03:40:56;6.40;75.80
83685;DHT22;73666;51.304;5.776;2024-01-30T03:45:57;6.40;75.80
83685;DHT22;73666;51.304;5.776;2024-01-30T03:50:58;6.40;75.80
83685;DHT22;73666;51.304;5.776;2024-01-30T03:56:02;6.50;75.80
83685;DHT22;73666;51.304;5.776;2024-01-30T04:01:04;6.50;75.80
83685;DHT22;73666;51.304;5.776;2024-01-30T04:06:08;6.50;75.80
83685;DHT22;73666;51.304;5.776;2024-01-30T04:11:09;6.50;75.80
83685;DHT22;73666;51.304;5.776;2024-01-30T04:16:19;6.50;75.80
83685;DHT22;73666;51.304;5.776;2024-01-30T04:21:21;6.50;75.90
83685;DHT22;73666;51.304;5.776;2024-01-30T04:26:23;6.40;75.90
83685;DHT22;73666;51.304;5.776;2024-01-30T04:31:25;6.40;75.90
83685;DHT22;73666;51.304;5.776;2024-01-30T04:36:26;6.30;76.00
83685;DHT22;73666;51.304;5.776;2024-01-30T04:41:27;6.20;76.10
83685;DHT22;73666;51.304;5.776;2024-01-30T04:46:31;6.20;76.20
83685;DHT22;73666;51.304;5.776;2024-01-30T04:51:34;6.20;76.20
83685;DHT22;73666;51.304;5.776;2024-01-30T04:56:41;6.20;76.30
83685;DHT22;73666;51.304;5.776;2024-01-30T05:01:42;6.30;76.30
83685;DHT22;73666;51.304;5.776;2024-01-30T05:06:43;6.40;76.20
83685;DHT22;73666;51.304;5.776;2024-01-30T05:11:53;6.40;76.20
83685;DHT22;73666;51.304;5.776;2024-01-30T05:17:06;6.50;76.20
83685;DHT22;73666;51.304;5.776;2024-01-30T05:22:08;6.60;76.10
83685;DHT22;73666;51.304;5.776;2024-01-30T05:27:09;6.60;76.10
83685;DHT22;73666;51.304;5.776;2024-01-30T05:32:17;6.70;76.20
83685;DHT22;73666;51.304;5.776;2024-01-30T05:37:18;6.70;76.10
83685;DHT22;73666;51.304;5.776;2024-01-30T05:42:21;6.80;76.20
83685;DHT22;73666;51.304;5.776;2024-01-30T05:47:22;6.90;76.20
83685;DHT22;73666;51.304;5.776;2024-01-30T05:52:23;7.00;76.10
83685;DHT22;73666;51.304;5.776;2024-01-30T05:57:23;7.00;76.10
83685;DHT22;73666;51.304;5.776;2024-01-30T06:02:24;7.20;76.20
83685;DHT22;73666;51.304;5.776;2024-01-30T06:07:33;7.20;76.20
83685;DHT22;73666;51.304;5.776;2024-01-30T06:12:34;7.30;76.20
83685;DHT22;73666;51.304;5.776;2024-01-30T06:17:35;7.40;76.20
83685;DHT22;73666;51.304;5.776;2024-01-30T06:22:36;7.40;76.20
83685;DHT22;73666;51.304;5.776;2024-01-30T06:27:37;7.50;76.20
83685;DHT22;73666;51.304;5.776;2024-01-30T06:32:37;7.50;76.20
83685;DHT22;73666;51.304;5.776;2024-01-30T06:37:39;7.50;76.20
83685;DHT22;73666;51.304;5.776;2024-01-30T06:42:39;7.50;76.30
83685;DHT22;73666;51.304;5.776;2024-01-30T06:47:40;7.50;76.30
83685;DHT22;73666;51.304;5.776;2024-01-30T06:52:41;7.50;76.30
83685;DHT22;73666;51.304;5.776;2024-01-30T06:57:42;7.60;76.30
83685;DHT22;73666;51.304;5.776;2024-01-30T07:02:42;7.70;76.30
83685;DHT22;73666;51.304;5.776;2024-01-30T07:07:43;7.80;76.20
83685;DHT22;73666;51.304;5.776;2024-01-30T07:12:44;7.80;76.20
83685;DHT22;73666;51.304;5.776;2024-01-30T07:17:47;7.80;76.20
83685;DHT22;73666;51.304;5.776;2024-01-30T07:22:48;7.90;76.20
83685;DHT22;73666;51.304;5.776;2024-01-30T07:28:29;7.90;76.30
83685;DHT22;73666;51.304;5.776;2024-01-30T07:34:06;8.00;76.30
83685;DHT22;73666;51.304;5.776;2024-01-30T07:39:28;8.00;76.20
83685;DHT22;73666;51.304;5.776;2024-01-30T07:50:47;8.00;76.20
83685;DHT22;73666;51.304;5.776;2024-01-30T07:55:48;8.10;76.20
83685;DHT22;73666;51.304;5.776;2024-01-30T08:00:50;8.10;76.20
83685;DHT22;73666;51.304;5.776;2024-01-30T08:05:52;8.20;76.10
83685;DHT22;73666;51.304;5.776;2024-01-30T08:10:53;8.30;76.10
83685;DHT22;73666;51.304;5.776;2024-01-30T08:15:53;8.30;76.00
83685;DHT22;73666;51.304;5.776;2024-01-30T08:20:54;8.40;76.00
83685;DHT22;73666;51.304;5.776;2024-01-30T08:25:55;8.50;75.90
83685;DHT22;73666;51.304;5.776;2024-01-30T08:30:56;8.60;75.80
83685;DHT22;73666;51.304;5.776;2024-01-30T08:35:56;8.90;75.60
83685;DHT22;73666;51.304;5.776;2024-01-30T08:40:57;9.00;75.50
83685;DHT22;73666;51.304;5.776;2024-01-30T08:46:01;9.00;75.40
83685;DHT22;73666;51.304;5.776;2024-01-30T08:51:02;9.20;75.30
83685;DHT22;73666;51.304;5.776;2024-01-30T08:56:03;9.40;75.20
83685;DHT22;73666;51.304;5.776;2024-01-30T09:01:05;9.50;75.00
83685;DHT22;73666;51.304;5.776;2024-01-30T09:06:12;9.60;74.70
83685;DHT22;73666;51.304;5.776;2024-01-30T09:11:14;9.60;74.60
83685;DHT22;73666;51.304;5.776;2024-01-30T09:16:15;9.60;74.60
83685;DHT22;73666;51.304;5.776;2024-01-30T09:21:16;9.60;74.70
83685;DHT22;73666;51.304;5.776;2024-01-30T09:26:17;9.70;74.70
83685;DHT22;73666;51.304;5.776;2024-01-30T09:31:18;9.80;74.70
83685;DHT22;73666;51.304;5.776;2024-01-30T09:36:19;9.80;74.50
83685;DHT22;73666;51.304;5.776;2024-01-30T09:41:24;9.90;74.40
83685;DHT22;73666;51.304;5.776;2024-01-30T09:46:27;10.00;74.20
83685;DHT22;73666;51.304;5.776;2024-01-30T09:51:44;10.10;74.10
83685;DHT22;73666;51.304;5.776;2024-01-30T09:56:47;10.20;74.00
83685;DHT22;73666;51.304;5.776;2024-01-30T10:01:50;10.40;73.90
83685;DHT22;73666;51.304;5.776;2024-01-30T10:07:02;10.50;73.70
83685;DHT22;73666;51.304;5.776;2024-01-30T10:12:10;10.60;73.60
83685;DHT22;73666;51.304;5.776;2024-01-30T10:17:49;10.70;73.30
83685;DHT22;73666;51.304;5.776;2024-01-30T10:23:37;10.70;73.40
83685;DHT22;73666;51.304;5.776;2024-01-30T10:28:43;10.70;73.50
83685;DHT22;73666;51.304;5.776;2024-01-30T10:33:51;10.80;73.50
83685;DHT22;73666;51.304;5.776;2024-01-30T10:39:14;10.80;73.50
83685;DHT22;73666;51.304;5.776;2024-01-30T10:49:55;11.20;73.10
83685;DHT22;73666;51.304;5.776;2024-01-30T10:55:08;11.50;72.70
83685;DHT22;73666;51.304;5.776;2024-01-30T11:00:39;11.50;72.50
83685;DHT22;73666;51.304;5.776;2024-01-30T11:11:27;11.40;72.80
83685;DHT22;73666;51.304;5.776;2024-01-30T11:16:32;11.50;72.60
83685;DHT22;73666;51.304;5.776;2024-01-30T11:21:32;11.60;72.50
83685;DHT22;73666;51.304;5.776;2024-01-30T11:26:33;11.70;72.40
83685;DHT22;73666;51.304;5.776;2024-01-30T11:31:34;11.60;72.50
83685;DHT22;73666;51.304;5.776;2024-01-30T11:36:35;11.50;72.50
83685;DHT22;73666;51.304;5.776;2024-01-30T11:41:40;11.50;72.60
83685;DHT22;73666;51.304;5.776;2024-01-30T11:46:41;11.60;72.50
83685;DHT22;73666;51.304;5.776;2024-01-30T11:51:42;11.80;72.30
83685;DHT22;73666;51.304;5.776;2024-01-30T11:56:43;11.90;72.00
83685;DHT22;73666;51.304;5.776;2024-01-30T12:01:44;12.00;71.90
83685;DHT22;73666;51.304;5.776;2024-01-30T12:06:45;11.90;71.80
83685;DHT22;73666;51.304;5.776;2024-01-30T12:11:46;12.00;71.80
83685;DHT22;73666;51.304;5.776;2024-01-30T12:16:50;12.10;71.90
83685;DHT22;73666;51.304;5.776;2024-01-30T12:21:57;12.20;71.60
83685;DHT22;73666;51.304;5.776;2024-01-30T12:26:59;12.20;71.30
83685;DHT22;73666;51.304;5.776;2024-01-30T12:32:00;12.00;71.60
83685;DHT22;73666;51.304;5.776;2024-01-30T12:37:01;11.90;71.80
83685;DHT22;73666;51.304;5.776;2024-01-30T12:42:02;11.70;72.10
83685;DHT22;73666;51.304;5.776;2024-01-30T12:47:04;11.60;72.20
83685;DHT22;73666;51.304;5.776;2024-01-30T12:52:05;11.50;72.00
83685;DHT22;73666;51.304;5.776;2024-01-30T12:57:06;11.60;72.10
83685;DHT22;73666;51.304;5.776;2024-01-30T13:02:07;11.70;72.00
83685;DHT22;73666;51.304;5.776;2024-01-30T13:07:08;11.70;71.90
83685;DHT22;73666;51.304;5.776;2024-01-30T13:12:08;11.70;71.20
83685;DHT22;73666;51.304;5.776;2024-01-30T13:17:09;11.70;70.30
83685;DHT22;73666;51.304;5.776;2024-01-30T13:34:01;11.80;68.80
83685;DHT22;73666;51.304;5.776;2024-01-30T13:45:36;12.20;68.10
83685;DHT22;73666;51.304;5.776;2024-01-30T13:50:42;12.20;67.40
83685;DHT22;73666;51.304;5.776;2024-01-30T14:01:09;12.20;65.60
83685;DHT22;73666;51.304;5.776;2024-01-30T14:06:29;12.10;65.60
83685;DHT22;73666;51.304;5.776;2024-01-30T14:11:49;12.00;65.30
83685;DHT22;73666;51.304;5.776;2024-01-30T14:17:14;11.90;65.70
83685;DHT22;73666;51.304;5.776;2024-01-30T14:22:28;11.80;66.10
83685;DHT22;73666;51.304;5.776;2024-01-30T14:27:38;11.70;66.00
83685;DHT22;73666;51.304;5.776;2024-01-30T14:50:07;11.50;66.00
83685;DHT22;73666;51.304;5.776;2024-01-30T14:55:14;11.30;66.10
83685;DHT22;73666;51.304;5.776;2024-01-30T15:05:55;11.10;65.20
83685;DHT22;73666;51.304;5.776;2024-01-30T15:11:08;11.10;64.60
83685;DHT22;73666;51.304;5.776;2024-01-30T15:16:35;11.00;65.10
83685;DHT22;73666;51.304;5.776;2024-01-30T15:21:36;10.90;64.70
83685;DHT22;73666;51.304;5.776;2024-01-30T15:26:40;10.80;65.00
83685;DHT22;73666;51.304;5.776;2024-01-30T15:31:44;10.70;65.30
83685;DHT22;73666;51.304;5.776;2024-01-30T15:48:05;10.40;66.20
83685;DHT22;73666;51.304;5.776;2024-01-30T15:53:06;10.20;66.60
83685;DHT22;73666;51.304;5.776;2024-01-30T15:58:07;10.10;67.00
83685;DHT22;73666;51.304;5.776;2024-01-30T16:03:08;10.00;67.30
83685;DHT22;73666;51.304;5.776;2024-01-30T16:08:09;10.00;67.60
83685;DHT22;73666;51.304;5.776;2024-01-30T16:13:09;9.80;67.70
83685;DHT22;73666;51.304;5.776;2024-01-30T16:18:10;9.80;68.00
83685;DHT22;73666;51.304;5.776;2024-01-30T16:23:11;9.70;68.00
83685;DHT22;73666;51.304;5.776;2024-01-30T16:28:13;9.60;67.90
83685;DHT22;73666;51.304;5.776;2024-01-30T16:33:13;9.50;68.00
83685;DHT22;73666;51.304;5.776;2024-01-30T16:38:15;9.50;68.20
83685;DHT22;73666;51.304;5.776;2024-01-30T16:43:16;9.40;68.30
83685;DHT22;73666;51.304;5.776;2024-01-30T16:48:49;9.40;68.30
83685;DHT22;73666;51.304;5.776;2024-01-30T16:53:51;9.40;68.50
83685;DHT22;73666;51.304;5.776;2024-01-30T16:59:03;9.30;68.70
83685;DHT22;73666;51.304;5.776;2024-01-30T17:04:23;9.20;68.70
83685;DHT22;73666;51.304;5.776;2024-01-30T17:09:33;9.20;68.90
83685;DHT22;73666;51.304;5.776;2024-01-30T17:14:37;9.20;69.00
83685;DHT22;73666;51.304;5.776;2024-01-30T17:19:51;9.10;69.00
83685;DHT22;73666;51.304;5.776;2024-01-30T17:30:49;9.00;69.20
83685;DHT22;73666;51.304;5.776;2024-01-30T17:36:18;9.00;69.40
83685;DHT22;73666;51.304;5.776;2024-01-30T17:41:19;8.90;69.50
83685;DHT22;73666;51.304;5.776;2024-01-30T17:46:20;8.80;69.70
83685;DHT22;73666;51.304;5.776;2024-01-30T17:51:21;8.80;70.00
83685;DHT22;73666;51.304;5.776;2024-01-30T18:02:12;8.60;70.20
83685;DHT22;73666;51.304;5.776;2024-01-30T18:07:46;8.60;70.30
83685;DHT22;73666;51.304;5.776;2024-01-30T18:12:47;8.60;70.40
83685;DHT22;73666;51.304;5.776;2024-01-30T18:17:48;8.50;70.50
83685;DHT22;73666;51.304;5.776;2024-01-30T18:22:49;8.50;70.50
83685;DHT22;73666;51.304;5.776;2024-01-30T18:27:50;8.50;70.60
83685;DHT22;73666;51.304;5.776;2024-01-30T18:32:51;8.50;70.80
83685;DHT22;73666;51.304;5.776;2024-01-30T18:37:52;8.50;70.90
83685;DHT22;73666;51.304;5.776;2024-01-30T18:42:53;8.40;71.10
83685;DHT22;73666;51.304;5.776;2024-01-30T18:47:54;8.40;71.10
83685;DHT22;73666;51.304;5.776;2024-01-30T18:52:55;8.30;71.30
83685;DHT22;73666;51.304;5.776;2024-01-30T18:57:56;8.20;71.40
83685;DHT22;73666;51.304;5.776;2024-01-30T19:02:57;8.20;71.40
83685;DHT22;73666;51.304;5.776;2024-01-30T19:07:58;8.20;71.50
83685;DHT22;73666;51.304;5.776;2024-01-30T19:12:58;8.20;71.60
83685;DHT22;73666;51.304;5.776;2024-01-30T19:17:59;8.20;71.70
83685;DHT22;73666;51.304;5.776;2024-01-30T19:23:00;8.10;71.80
83685;DHT22;73666;51.304;5.776;2024-01-30T19:28:01;8.10;72.00
83685;DHT22;73666;51.304;5.776;2024-01-30T19:33:03;8.10;72.00
83685;DHT22;73666;51.304;5.776;2024-01-30T19:38:04;8.10;72.10
83685;DHT22;73666;51.304;5.776;2024-01-30T19:43:05;8.00;72.10
83685;DHT22;73666;51.304;5.776;2024-01-30T19:48:06;8.00;72.20
83685;DHT22;73666;51.304;5.776;2024-01-30T19:53:07;8.00;72.30
83685;DHT22;73666;51.304;5.776;2024-01-30T19:58:07;8.00;72.40
83685;DHT22;73666;51.304;5.776;2024-01-30T20:03:08;8.00;72.50
83685;DHT22;73666;51.304;5.776;2024-01-30T20:08:09;8.00;72.50
83685;DHT22;73666;51.304;5.776;2024-01-30T20:13:09;8.00;72.60
83685;DHT22;73666;51.304;5.776;2024-01-30T20:18:10;7.80;72.70
83685;DHT22;73666;51.304;5.776;2024-01-30T20:23:14;7.80;72.80
83685;DHT22;73666;51.304;5.776;2024-01-30T20:28:15;7.80;72.90
83685;DHT22;73666;51.304;5.776;2024-01-30T20:33:17;7.80;73.00
83685;DHT22;73666;51.304;5.776;2024-01-30T20:38:18;7.80;73.10
